Time;durP1;ratioP1;P1;durP2;ratioP2;P2;SDS_P1;SDS_P2;PMS_P1;PMS_P2;Temp;Humidity;BMP_temperature;BMP_pressure;BME280_temperature;BME280_humidity;BME280_pressure;Samples;Min_cycle;Max_cycle;Signal;HPM_P1;HPM_P2
2021/06/17 00:00:58;;;;;;;3.72;3.53;;;14.00;99.90;;;;;;5032450;28;20053;-59
2021/06/17 00:03:25;;;;;;;3.65;3.42;;;14.00;99.90;;;;;;5032646;28;20101;-58
2021/06/17 00:05:53;;;;;;;5.10;3.90;;;14.10;99.20;;;;;;5032619;28;20032;-60
2021/06/17 00:08:20;;;;;;;4.28;3.67;;;14.20;99.80;;;;;;5032646;28;20028;-60
2021/06/17 00:10:50;;;;;;;3.60;3.30;;;14.20;99.20;;;;;;5032296;28;20029;-61
2021/06/17 00:13:23;;;;;;;4.00;3.30;;;14.20;98.30;;;;;;5032582;28;20025;-58
2021/06/17 00:15:54;;;;;;;6.25;3.90;;;14.20;98.60;;;;;;5032451;28;20071;-59
2021/06/17 00:18:22;;;;;;;3.35;3.10;;;14.30;99.40;;;;;;5032433;28;20021;-60
2021/06/17 00:20:50;;;;;;;3.67;3.38;;;14.40;98.00;;;;;;5032496;28;20108;-61
2021/06/17 00:23:18;;;;;;;3.00;2.90;;;14.50;98.10;;;;;;5032260;28;20048;-61
2021/06/17 00:25:46;;;;;;;3.47;3.03;;;14.60;97.70;;;;;;5032395;28;20025;-61
2021/06/17 00:28:13;;;;;;;3.30;3.10;;;14.70;97.10;;;;;;5032304;28;20037;-59
2021/06/17 00:30:41;;;;;;;3.03;2.83;;;14.70;97.70;;;;;;5032154;28;20077;-58
2021/06/17 00:33:09;;;;;;;3.03;2.92;;;14.70;97.40;;;;;;5032291;28;20048;-60
2021/06/17 00:35:37;;;;;;;2.80;2.70;;;14.70;97.40;;;;;;5032329;28;20026;-59
2021/06/17 00:38:04;;;;;;;2.90;2.70;;;14.70;98.10;;;;;;5031056;28;20053;-59
2021/06/17 00:40:33;;;;;;;3.22;2.97;;;14.70;97.30;;;;;;5032468;28;20331;-58
2021/06/17 00:43:02;;;;;;;3.33;2.83;;;14.80;97.80;;;;;;5032167;28;20022;-59
2021/06/17 00:45:35;;;;;;;2.80;2.70;;;14.90;97.80;;;;;;5032380;28;20139;-60
2021/06/17 00:48:03;;;;;;;3.10;2.90;;;15.10;97.00;;;;;;5032384;28;20035;-59
2021/06/17 00:50:45;;;;;;;2.90;2.70;;;15.10;97.20;;;;;;5031990;28;20482;-60
2021/06/17 00:53:18;;;;;;;3.30;3.10;;;15.30;96.50;;;;;;5032189;28;20041;-60
2021/06/17 00:55:46;;;;;;;2.90;2.75;;;15.30;96.80;;;;;;5031970;28;20040;-61
2021/06/17 00:58:15;;;;;;;3.10;3.00;;;15.10;95.80;;;;;;5035437;28;20017;-58
2021/06/17 01:00:43;;;;;;;3.30;3.00;;;15.20;96.00;;;;;;5035625;28;20049;-59
2021/06/17 01:03:11;;;;;;;3.15;2.90;;;15.20;96.60;;;;;;5035449;28;20024;-59
2021/06/17 01:05:39;;;;;;;2.92;2.83;;;15.30;96.40;;;;;;5035538;28;20107;-59
2021/06/17 01:08:21;;;;;;;2.78;2.63;;;15.50;96.40;;;;;;5035405;28;20021;-60
2021/06/17 01:11:11;;;;;;;2.80;2.70;;;15.50;95.00;;;;;;5035449;28;20022;-59
2021/06/17 01:13:55;;;;;;;3.40;3.10;;;15.50;94.00;;;;;;5035660;28;20097;-60
2021/06/17 01:16:41;;;;;;;3.17;2.88;;;15.60;95.00;;;;;;5035479;28;20542;-59
2021/06/17 01:19:31;;;;;;;2.90;2.80;;;15.70;93.30;;;;;;5035240;28;20025;-60
2021/06/17 01:22:29;;;;;;;2.80;2.60;;;15.60;94.10;;;;;;5035213;28;20033;-59
2021/06/17 01:25:23;;;;;;;2.67;2.58;;;15.60;94.10;;;;;;5035133;28;20041;-59
2021/06/17 01:28:11;;;;;;;2.90;2.70;;;15.80;93.90;;;;;;5035292;28;20155;-58
2021/06/17 01:30:56;;;;;;;2.85;2.65;;;15.80;93.80;;;;;;5034775;28;20045;-63
2021/06/17 01:33:26;;;;;;;3.00;2.47;;;15.80;93.10;;;;;;5033704;28;20017;-58
2021/06/17 01:35:59;;;;;;;2.55;2.35;;;15.80;92.20;;;;;;5034955;28;20021;-59
2021/06/17 01:38:27;;;;;;;2.40;2.20;;;15.70;92.30;;;;;;5035024;28;20026;-59
2021/06/17 01:40:56;;;;;;;2.58;2.40;;;15.70;92.40;;;;;;5034768;28;20363;-60
2021/06/17 01:43:25;;;;;;;2.65;2.55;;;15.70;92.60;;;;;;5034888;28;20505;-60
2021/06/17 01:45:52;;;;;;;3.40;3.10;;;15.80;91.60;;;;;;5034827;28;20382;-60
2021/06/17 01:48:20;;;;;;;2.55;2.28;;;15.80;91.70;;;;;;5034879;28;20022;-59
2021/06/17 01:50:49;;;;;;;2.70;2.60;;;15.90;92.70;;;;;;5034574;28;20029;-60
2021/06/17 01:53:21;;;;;;;4.82;2.70;;;16.00;93.10;;;;;;5034713;28;20025;-60
2021/06/17 01:55:49;;;;;;;2.45;2.25;;;16.10;92.50;;;;;;5034723;28;20017;-60
2021/06/17 01:58:19;;;;;;;2.55;2.35;;;16.10;91.20;;;;;;5034528;28;20044;-61
2021/06/17 02:00:48;;;;;;;2.47;2.30;;;16.00;91.00;;;;;;5034639;28;20018;-59
2021/06/17 02:03:16;;;;;;;2.60;2.40;;;16.00;91.60;;;;;;5034385;28;20022;-61
2021/06/17 02:05:44;;;;;;;2.13;2.00;;;16.00;92.30;;;;;;5034533;28;20024;-60
2021/06/17 02:08:15;;;;;;;2.70;2.28;;;16.10;91.70;;;;;;5034042;28;20076;-61
2021/06/17 02:10:44;;;;;;;2.55;2.35;;;16.10;91.40;;;;;;5034355;28;20014;-60
2021/06/17 02:13:13;;;;;;;2.53;2.42;;;16.00;92.30;;;;;;5034258;28;20569;-60
2021/06/17 02:15:44;;;;;;;2.60;2.40;;;16.00;92.00;;;;;;5034235;28;20033;-60
2021/06/17 02:18:14;;;;;;;2.75;2.58;;;16.20;92.10;;;;;;5034294;28;20025;-60
2021/06/17 02:20:42;;;;;;;2.63;2.50;;;16.20;91.90;;;;;;5034321;28;20021;-59
2021/06/17 02:23:13;;;;;;;2.92;2.72;;;16.30;92.70;;;;;;5034103;28;20025;-60
2021/06/17 02:25:42;;;;;;;2.80;2.60;;;16.50;91.40;;;;;;5034155;28;20049;-60
2021/06/17 02:28:19;;;;;;;4.57;2.60;;;16.50;91.40;;;;;;5034169;28;20386;-60
2021/06/17 02:30:48;;;;;;;3.03;2.80;;;16.40;90.30;;;;;;5033753;28;20537;-60
2021/06/17 02:33:20;;;;;;;2.20;2.10;;;16.20;90.00;;;;;;5033863;28;20022;-60
2021/06/17 02:35:52;;;;;;;4.82;2.50;;;16.00;90.10;;;;;;5033915;28;20021;-59
2021/06/17 02:38:27;;;;;;;3.40;2.92;;;16.10;89.60;;;;;;5032551;28;20041;-60
2021/06/17 02:40:59;;;;;;;2.90;2.80;;;16.20;90.60;;;;;;5033741;28;20026;-60
2021/06/17 02:43:34;;;;;;;3.38;2.90;;;16.20;88.00;;;;;;5033887;28;20036;-60
2021/06/17 02:46:02;;;;;;;2.95;2.80;;;16.20;89.10;;;;;;5033845;28;20036;-60
2021/06/17 02:48:30;;;;;;;2.80;2.60;;;16.40;90.10;;;;;;5033699;28;20113;-60
2021/06/17 02:50:57;;;;;;;3.22;3.03;;;16.40;90.00;;;;;;5033489;28;20393;-60
2021/06/17 02:53:25;;;;;;;3.33;3.10;;;16.40;90.20;;;;;;5033517;28;20025;-60
2021/06/17 02:55:53;;;;;;;3.50;3.20;;;16.60;91.00;;;;;;5033575;28;20021;-61
2021/06/17 02:58:32;;;;;;;3.60;3.40;;;16.70;90.30;;;;;;5033471;28;20426;-60
2021/06/17 03:01:17;;;;;;;3.63;3.20;;;16.60;91.00;;;;;;5033493;28;20024;-60
2021/06/17 03:03:50;;;;;;;3.03;2.83;;;16.70;90.50;;;;;;5033399;28;20023;-60
2021/06/17 03:06:26;;;;;;;3.00;2.80;;;16.60;89.40;;;;;;5033372;28;20056;-60
2021/06/17 03:09:08;;;;;;;2.60;2.50;;;16.80;89.20;;;;;;5033404;28;20478;-59
2021/06/17 03:11:37;;;;;;;2.95;2.72;;;16.70;90.10;;;;;;5033204;28;20026;-60
2021/06/17 03:14:18;;;;;;;2.58;2.38;;;16.70;89.50;;;;;;5033194;28;20018;-60
2021/06/17 03:16:50;;;;;;;2.83;2.63;;;16.60;90.00;;;;;;5048881;28;20036;-60
2021/06/17 03:19:20;;;;;;;2.60;2.40;;;16.80;90.30;;;;;;5032389;28;20029;-60
2021/06/17 03:21:51;;;;;;;3.22;2.90;;;16.60;88.70;;;;;;5033215;28;20036;-61
2021/06/17 03:24:23;;;;;;;2.45;2.25;;;16.60;89.90;;;;;;5033174;28;20030;-60
2021/06/17 03:26:53;;;;;;;4.85;3.15;;;16.70;90.80;;;;;;5033052;28;20470;-60
2021/06/17 03:29:29;;;;;;;2.78;2.55;;;16.80;89.10;;;;;;5032764;28;20124;-61
2021/06/17 03:31:58;;;;;;;3.50;2.60;;;16.60;88.10;;;;;;5032983;28;20025;-60
2021/06/17 03:34:25;;;;;;;2.70;2.50;;;16.60;88.40;;;;;;5033027;28;20048;-61
2021/06/17 03:36:53;;;;;;;5.65;2.80;;;16.50;89.30;;;;;;5033226;28;20438;-61
2021/06/17 03:39:22;;;;;;;2.97;2.83;;;16.50;90.20;;;;;;5033070;28;20029;-61
2021/06/17 03:41:51;;;;;;;3.13;2.83;;;16.70;89.50;;;;;;5032817;28;20028;-60
2021/06/17 03:44:20;;;;;;;3.10;2.90;;;16.90;88.30;;;;;;5032878;28;20022;-60
2021/06/17 03:46:49;;;;;;;3.08;2.80;;;16.80;88.10;;;;;;5032879;28;20017;-60
2021/06/17 03:49:18;;;;;;;3.03;2.83;;;16.70;89.80;;;;;;5033075;28;20041;-60
2021/06/17 03:51:45;;;;;;;2.80;2.70;;;16.80;89.00;;;;;;5032646;28;20534;-59
2021/06/17 03:54:23;;;;;;;3.10;2.90;;;16.70;87.80;;;;;;5032764;28;20078;-61
2021/06/17 03:56:55;;;;;;;2.72;2.63;;;16.80;88.30;;;;;;5033105;28;20076;-61
2021/06/17 03:59:36;;;;;;;3.28;2.90;;;16.80;89.00;;;;;;5032658;28;20022;-61
2021/06/17 04:02:03;;;;;;;3.20;3.00;;;16.70;89.00;;;;;;5032766;28;20033;-59
2021/06/17 04:04:31;;;;;;;3.22;2.95;;;16.80;89.40;;;;;;5032699;28;20056;-59
2021/06/17 04:07:01;;;;;;;2.90;2.80;;;16.70;89.70;;;;;;5032624;28;20026;-59
2021/06/17 04:09:32;;;;;;;2.95;2.75;;;16.60;88.90;;;;;;5032740;28;20033;-58
2021/06/17 04:12:05;;;;;;;2.70;2.60;;;16.40;89.80;;;;;;5032478;28;20033;-59
2021/06/17 04:14:39;;;;;;;2.75;2.55;;;16.60;89.50;;;;;;5032747;28;20025;-59
2021/06/17 04:17:09;;;;;;;2.65;2.55;;;16.60;89.20;;;;;;5032577;28;20029;-59
2021/06/17 04:19:38;;;;;;;2.90;2.70;;;16.60;89.50;;;;;;5032518;28;20025;-60
2021/06/17 04:22:10;;;;;;;2.95;2.70;;;16.60;89.80;;;;;;5031253;28;20028;-59
2021/06/17 04:25:01;;;;;;;3.17;2.95;;;16.60;90.10;;;;;;5032612;28;20026;-59
2021/06/17 04:27:30;;;;;;;2.65;2.30;;;16.60;89.90;;;;;;5031251;28;20057;-59
2021/06/17 04:29:58;;;;;;;2.80;2.60;;;16.50;89.60;;;;;;5032252;28;20140;-59
2021/06/17 04:32:27;;;;;;;3.20;3.00;;;16.50;90.00;;;;;;5036144;28;20061;-60
2021/06/17 04:34:57;;;;;;;2.80;2.60;;;16.50;90.50;;;;;;5036254;28;20029;-58
2021/06/17 04:37:27;;;;;;;3.20;3.00;;;16.60;89.90;;;;;;5036199;28;20028;-59
2021/06/17 04:39:59;;;;;;;2.95;2.70;;;16.60;90.10;;;;;;5036384;28;20021;-59
2021/06/17 04:42:28;;;;;;;2.83;2.72;;;16.40;89.20;;;;;;5036114;28;20022;-59
2021/06/17 04:44:55;;;;;;;3.20;3.00;;;16.40;89.10;;;;;;5036082;28;20112;-59
2021/06/17 04:47:23;;;;;;;3.13;2.58;;;16.50;90.00;;;;;;5035933;28;20056;-60
2021/06/17 04:49:51;;;;;;;2.28;2.17;;;16.40;89.20;;;;;;5035977;28;20497;-59
2021/06/17 04:52:42;;;;;;;2.30;2.20;;;16.40;89.50;;;;;;5035748;28;20029;-59
2021/06/17 04:55:10;;;;;;;1.88;1.77;;;16.40;89.80;;;;;;5035769;28;20442;-59
2021/06/17 04:57:37;;;;;;;2.40;2.30;;;16.40;90.10;;;;;;5035796;28;20029;-58
2021/06/17 05:00:05;;;;;;;2.85;2.67;;;16.30;90.20;;;;;;5035642;28;20060;-58
2021/06/17 05:02:33;;;;;;;2.10;2.00;;;16.30;90.30;;;;;;5035624;28;20026;-57
2021/06/17 05:05:00;;;;;;;2.00;1.90;;;16.30;90.40;;;;;;5035713;28;20026;-59
2021/06/17 05:07:50;;;;;;;5.13;2.80;;;16.30;89.90;;;;;;5035546;28;20028;-58
2021/06/17 05:13:00;;;;;;;2.70;2.60;;;16.30;90.70;;;;;;5035669;28;20033;-58
2021/06/17 05:15:27;;;;;;;3.67;3.38;;;16.30;90.70;;;;;;5035613;28;20553;-58
2021/06/17 05:17:55;;;;;;;2.50;2.40;;;16.30;90.80;;;;;;5035424;28;20021;-57
2021/06/17 05:20:26;;;;;;;2.90;2.60;;;16.20;90.40;;;;;;5035288;28;20021;-60
2021/06/17 05:22:53;;;;;;;2.70;2.60;;;16.20;90.50;;;;;;5035624;28;20095;-60
2021/06/17 05:25:21;;;;;;;2.60;2.50;;;16.10;90.20;;;;;;5035096;28;20021;-60
2021/06/17 05:27:48;;;;;;;2.58;2.47;;;16.10;90.60;;;;;;5035187;28;20049;-59
2021/06/17 05:30:16;;;;;;;2.60;2.40;;;16.10;90.90;;;;;;5035007;28;20041;-58
2021/06/17 05:32:43;;;;;;;2.47;2.28;;;16.10;90.90;;;;;;5034972;28;20025;-60
2021/06/17 05:35:11;;;;;;;2.28;2.17;;;16.10;90.80;;;;;;5035015;28;20018;-60
2021/06/17 05:37:39;;;;;;;2.45;2.28;;;16.00;90.90;;;;;;5035001;28;20025;-59
2021/06/17 05:40:07;;;;;;;2.70;2.42;;;16.00;91.50;;;;;;5035111;28;20017;-58
2021/06/17 05:42:35;;;;;;;3.03;2.83;;;15.90;91.30;;;;;;5049256;28;20034;-58
2021/06/17 05:45:02;;;;;;;2.40;2.30;;;15.90;91.70;;;;;;5033643;28;20029;-58
2021/06/17 05:47:30;;;;;;;2.80;2.60;;;15.90;92.00;;;;;;5034743;28;20104;-62
2021/06/17 05:49:57;;;;;;;3.20;2.60;;;15.80;92.10;;;;;;5034611;28;20105;-61
2021/06/17 05:52:24;;;;;;;2.50;2.40;;;15.70;91.80;;;;;;5034592;28;20113;-60
2021/06/17 05:54:52;;;;;;;2.88;2.60;;;15.60;92.30;;;;;;5034699;28;20026;-58
2021/06/17 05:57:19;;;;;;;2.50;2.30;;;15.50;92.30;;;;;;5034544;28;20022;-59
2021/06/17 05:59:46;;;;;;;2.90;2.75;;;15.50;92.40;;;;;;5034677;28;20484;-59
2021/06/17 06:02:14;;;;;;;2.75;2.65;;;15.40;92.50;;;;;;5034567;28;20392;-59
2021/06/17 06:04:42;;;;;;;2.80;2.60;;;15.30;93.00;;;;;;5034426;28;20403;-58
2021/06/17 06:07:09;;;;;;;3.10;2.90;;;15.20;92.90;;;;;;5034596;28;20044;-58
2021/06/17 06:09:36;;;;;;;3.05;2.95;;;15.20;92.70;;;;;;5034585;28;20035;-59
2021/06/17 06:12:06;;;;;;;2.40;2.30;;;15.10;92.90;;;;;;5034247;28;20025;-57
2021/06/17 06:14:33;;;;;;;2.80;2.60;;;15.00;93.50;;;;;;5034283;28;20057;-59
2021/06/17 06:17:00;;;;;;;2.55;2.40;;;14.90;93.20;;;;;;5034275;28;20432;-59
2021/06/17 06:19:30;;;;;;;3.33;3.13;;;14.80;93.40;;;;;;5034143;28;20075;-59
2021/06/17 06:21:57;;;;;;;3.53;3.22;;;14.80;93.30;;;;;;5034211;28;20037;-59
2021/06/17 06:24:25;;;;;;;3.30;3.10;;;14.70;93.90;;;;;;5033957;28;20029;-59
2021/06/17 06:26:57;;;;;;;3.20;2.80;;;14.60;94.60;;;;;;5034371;28;20032;-59
2021/06/17 06:29:24;;;;;;;2.88;2.67;;;14.60;93.90;;;;;;5033808;28;20049;-61
2021/06/17 06:31:51;;;;;;;3.10;2.80;;;14.40;94.00;;;;;;5033932;28;20470;-59
2021/06/17 06:34:19;;;;;;;3.00;2.70;;;14.40;94.30;;;;;;5033951;28;20091;-59
2021/06/17 06:36:46;;;;;;;3.25;3.05;;;14.30;94.40;;;;;;5033832;28;20510;-59
2021/06/17 06:39:14;;;;;;;3.85;3.55;;;14.40;94.60;;;;;;5049205;28;20039;-59
2021/06/17 06:41:41;;;;;;;3.10;2.90;;;14.30;94.60;;;;;;5033805;28;20021;-59
2021/06/17 06:44:10;;;;;;;3.40;3.20;;;14.20;94.80;;;;;;5033507;28;20029;-59
2021/06/17 06:46:39;;;;;;;3.25;3.03;;;14.20;94.70;;;;;;5033337;28;20083;-59
2021/06/17 06:49:07;;;;;;;3.70;3.38;;;14.10;95.60;;;;;;5033281;28;20079;-59
2021/06/17 06:51:38;;;;;;;3.10;2.40;;;14.20;94.70;;;;;;5033242;28;20026;-59
2021/06/17 06:54:10;;;;;;;3.00;2.80;;;14.20;95.10;;;;;;5064717;23;20342;-59
2021/06/17 06:56:38;;;;;;;3.50;3.30;;;14.00;95.20;;;;;;5032246;28;20033;-58
2021/06/17 06:59:06;;;;;;;3.50;3.30;;;13.90;95.50;;;;;;5033566;28;20032;-59
2021/06/17 07:01:36;;;;;;;3.08;2.97;;;13.90;95.70;;;;;;5032111;28;20108;-60
2021/06/17 07:04:03;;;;;;;3.03;2.83;;;13.90;95.70;;;;;;5033449;28;20032;-60
2021/06/17 07:06:31;;;;;;;3.55;3.28;;;13.90;95.60;;;;;;5033418;28;20551;-59
2021/06/17 07:08:58;;;;;;;3.15;2.95;;;13.90;95.80;;;;;;5033253;28;20026;-60
2021/06/17 07:11:25;;;;;;;3.60;3.30;;;13.80;95.90;;;;;;5031962;28;20029;-59
2021/06/17 07:13:53;;;;;;;2.90;2.70;;;13.90;95.60;;;;;;5033298;28;20018;-59
2021/06/17 07:16:20;;;;;;;3.60;3.40;;;13.90;96.00;;;;;;5033101;28;20037;-59
2021/06/17 07:18:47;;;;;;;3.60;3.30;;;13.80;96.10;;;;;;5033223;28;20021;-60
2021/06/17 07:21:16;;;;;;;3.67;2.90;;;13.80;96.20;;;;;;5033178;28;20144;-59
2021/06/17 07:23:50;;;;;;;3.05;2.95;;;13.70;96.30;;;;;;5033031;28;20030;-59
2021/06/17 07:26:20;;;;;;;3.15;2.85;;;13.70;96.30;;;;;;5032986;28;20490;-59
2021/06/17 07:28:48;;;;;;;3.40;3.10;;;13.60;96.40;;;;;;5032877;28;20030;-60
2021/06/17 07:31:16;;;;;;;3.30;3.00;;;13.60;96.50;;;;;;5033330;28;20033;-60
2021/06/17 07:33:43;;;;;;;3.10;2.90;;;13.50;96.70;;;;;;5033077;28;20017;-59
2021/06/17 07:36:15;;;;;;;3.35;3.13;;;13.50;96.70;;;;;;5033110;28;20049;-59
2021/06/17 07:38:43;;;;;;;3.10;2.90;;;13.50;96.80;;;;;;5032749;28;20478;-59
2021/06/17 07:41:10;;;;;;;3.10;2.90;;;13.60;96.60;;;;;;5032942;28;20029;-61
2021/06/17 07:43:37;;;;;;;3.10;3.00;;;13.60;96.70;;;;;;5032805;28;20056;-61
2021/06/17 07:46:05;;;;;;;3.50;3.13;;;13.60;96.50;;;;;;5032801;28;20022;-61
2021/06/17 07:48:33;;;;;;;3.00;2.80;;;13.60;96.90;;;;;;5032796;28;20033;-61
2021/06/17 07:51:00;;;;;;;3.00;2.90;;;13.40;97.20;;;;;;5032810;28;20022;-61
2021/06/17 07:53:28;;;;;;;3.22;2.80;;;13.40;96.90;;;;;;5032798;28;20481;-62
2021/06/17 07:55:55;;;;;;;2.85;2.75;;;13.40;97.10;;;;;;5031299;28;20041;-62
2021/06/17 07:58:23;;;;;;;4.28;3.38;;;13.40;97.00;;;;;;5031387;28;20113;-60
2021/06/17 08:00:50;;;;;;;2.35;2.25;;;13.30;97.10;;;;;;5032772;28;20028;-63
2021/06/17 08:03:17;;;;;;;2.60;2.50;;;13.40;97.00;;;;;;5032869;28;20022;-63
2021/06/17 08:05:45;;;;;;;2.92;2.72;;;13.30;97.20;;;;;;5034134;28;20028;-64
2021/06/17 08:08:12;;;;;;;2.60;2.40;;;13.30;97.40;;;;;;5036875;28;20143;-63
2021/06/17 08:10:42;;;;;;;2.50;2.40;;;13.30;97.60;;;;;;5036794;28;20013;-63
2021/06/17 08:13:10;;;;;;;2.50;2.30;;;13.40;97.00;;;;;;5036686;28;20103;-64
2021/06/17 08:15:37;;;;;;;5.03;2.50;;;13.30;96.80;;;;;;5036572;28;20028;-62
2021/06/17 08:18:06;;;;;;;2.58;2.38;;;13.30;97.30;;;;;;5036573;28;20017;-63
2021/06/17 08:20:33;;;;;;;3.08;2.80;;;13.30;97.80;;;;;;5036498;28;20025;-62
2021/06/17 08:23:01;;;;;;;2.70;2.50;;;13.30;97.20;;;;;;5036534;28;20029;-61
2021/06/17 08:25:28;;;;;;;2.95;2.75;;;13.40;96.90;;;;;;5036469;28;20040;-61
2021/06/17 08:28:00;;;;;;;3.20;2.90;;;13.30;97.10;;;;;;5036324;28;20025;-61
2021/06/17 08:30:28;;;;;;;2.90;2.70;;;13.10;97.70;;;;;;5036346;28;20026;-61
2021/06/17 08:32:55;;;;;;;2.95;2.75;;;13.10;97.30;;;;;;5036226;28;20029;-62
2021/06/17 08:35:22;;;;;;;3.03;2.88;;;13.10;97.40;;;;;;5036205;28;20018;-62
2021/06/17 08:37:50;;;;;;;3.38;3.05;;;13.10;98.00;;;;;;5036073;28;20022;-61
2021/06/17 08:40:17;;;;;;;3.28;3.05;;;13.00;97.80;;;;;;5035922;28;20033;-61
2021/06/17 08:42:45;;;;;;;3.50;3.20;;;12.90;98.40;;;;;;5036074;28;20505;-61
2021/06/17 08:45:13;;;;;;;3.20;3.00;;;12.80;98.90;;;;;;5035793;28;20025;-61
2021/06/17 08:47:41;;;;;;;3.13;2.90;;;12.90;98.50;;;;;;5035805;28;20030;-62
2021/06/17 08:50:11;;;;;;;3.33;3.13;;;12.80;98.30;;;;;;5035748;28;20068;-61
2021/06/17 08:52:40;;;;;;;3.25;3.05;;;12.80;98.50;;;;;;5035834;28;20033;-62
2021/06/17 08:55:21;;;;;;;3.33;3.03;;;12.80;98.40;;;;;;5035524;28;20060;-61
2021/06/17 08:57:51;;;;;;;3.55;3.35;;;12.80;98.50;;;;;;5035909;28;20025;-61
2021/06/17 09:00:21;;;;;;;4.10;3.80;;;12.70;98.90;;;;;;5035737;28;20025;-64
2021/06/17 09:02:56;;;;;;;3.78;3.53;;;12.60;98.80;;;;;;5035714;28;20026;-63
2021/06/17 09:05:25;;;;;;;3.70;3.40;;;12.60;99.00;;;;;;5035586;28;20029;-62
2021/06/17 09:07:53;;;;;;;3.65;3.35;;;12.50;99.40;;;;;;5035746;28;20022;-63
2021/06/17 09:17:07;;;;;;;;;;;12.50;99.30;;;;;;4998791;28;20025;-64
2021/06/17 09:19:48;;;;;;;3.72;3.42;;;12.50;99.40;;;;;;5035354;28;19905;-64
2021/06/17 09:22:21;;;;;;;3.38;3.17;;;12.60;99.20;;;;;;5034017;28;20611;-64
2021/06/17 09:24:51;;;;;;;3.45;3.20;;;12.60;99.30;;;;;;5035311;28;20021;-64
2021/06/17 09:33:54;;;;;;;3.97;2.83;;;12.50;99.70;;;;;;4994132;28;20088;-64
2021/06/17 09:36:23;;;;;;;3.03;2.75;;;12.40;99.90;;;;;;5035093;28;20339;-64
2021/06/17 09:38:55;;;;;;;3.00;2.70;;;12.30;99.90;;;;;;5035318;28;20018;-64
2021/06/17 09:41:41;;;;;;;3.53;3.25;;;12.30;99.90;;;;;;5034967;28;20028;-64
2021/06/17 09:44:39;;;;;;;3.60;3.40;;;12.20;99.90;;;;;;5035128;28;20061;-64
2021/06/17 09:47:11;;;;;;;3.20;3.00;;;12.00;99.90;;;;;;5034883;28;20025;-63
2021/06/17 09:49:40;;;;;;;3.17;2.72;;;12.00;99.90;;;;;;5034697;28;20111;-64
2021/06/17 09:52:09;;;;;;;5.40;3.15;;;11.90;99.90;;;;;;5034761;28;20116;-64
2021/06/17 09:54:40;;;;;;;3.30;3.10;;;11.80;99.90;;;;;;5034572;28;20053;-64
2021/06/17 09:57:08;;;;;;;;;;;11.60;99.90;;;;;;5035118;28;20021;-64
2021/06/17 09:59:51;;;;;;;3.00;2.80;;;11.40;99.90;;;;;;5034642;28;19912;-64
2021/06/17 10:02:23;;;;;;;3.60;3.30;;;11.20;99.90;;;;;;5034590;28;20040;-64
2021/06/17 10:04:52;;;;;;;4.40;4.00;;;11.00;99.90;;;;;;5034713;28;20492;-63
2021/06/17 10:07:20;;;;;;;4.28;3.38;;;11.20;99.90;;;;;;5034391;28;20021;-63
2021/06/17 10:09:48;;;;;;;3.80;3.60;;;11.30;99.90;;;;;;5034471;28;20101;-64
2021/06/17 10:12:15;;;;;;;3.80;3.60;;;11.30;99.90;;;;;;5034288;28;20385;-64
2021/06/17 10:14:42;;;;;;;3.70;3.50;;;11.10;99.90;;;;;;5034259;28;20017;-64
2021/06/17 10:17:10;;;;;;;3.33;3.13;;;11.10;99.90;;;;;;5034284;28;20521;-63
2021/06/17 10:19:40;;;;;;;3.55;3.35;;;11.00;99.90;;;;;;5034326;28;20021;-64
2021/06/17 10:22:11;;;;;;;3.45;3.20;;;10.90;99.90;;;;;;5034265;28;20049;-64
2021/06/17 10:24:42;;;;;;;4.25;3.95;;;10.90;99.90;;;;;;5034148;28;20064;-64
2021/06/17 10:27:11;;;;;;;3.80;3.47;;;10.90;99.90;;;;;;5034228;28;20032;-64
2021/06/17 10:29:44;;;;;;;4.10;3.80;;;10.90;99.90;;;;;;5033733;28;20100;-64
2021/06/17 10:32:16;;;;;;;3.65;3.45;;;10.80;99.90;;;;;;5033847;28;20065;-65
2021/06/17 10:35:02;;;;;;;3.90;3.70;;;10.80;99.90;;;;;;5034092;28;20029;-64
2021/06/17 10:37:32;;;;;;;4.05;3.80;;;11.10;99.90;;;;;;5032524;28;20029;-63
2021/06/17 10:40:10;;;;;;;4.10;3.90;;;11.30;99.90;;;;;;5033785;28;20017;-63
2021/06/17 10:42:46;;;;;;;3.70;3.50;;;11.50;99.90;;;;;;5033824;28;20029;-62
2021/06/17 10:45:17;;;;;;;3.70;3.50;;;11.40;99.90;;;;;;5033811;28;20087;-62
2021/06/17 10:47:50;;;;;;;3.90;3.70;;;11.40;99.90;;;;;;5033817;28;20021;-62
2021/06/17 10:50:27;;;;;;;3.75;3.63;;;11.40;99.90;;;;;;5033660;28;20036;-63
2021/06/17 10:53:15;;;;;;;4.18;3.97;;;11.50;99.90;;;;;;5033692;28;20025;-63
2021/06/17 10:56:02;;;;;;;4.10;3.80;;;11.60;99.90;;;;;;5033012;28;20069;-63
2021/06/17 10:58:42;;;;;;;3.67;3.47;;;11.50;99.90;;;;;;5033404;28;20501;-64
2021/06/17 11:01:29;;;;;;;4.10;3.90;;;11.50;99.90;;;;;;5033736;28;20420;-62
2021/06/17 11:04:04;;;;;;;3.92;3.65;;;11.30;99.90;;;;;;5033356;28;20021;-62
2021/06/17 11:06:49;;;;;;;4.13;3.90;;;11.30;99.90;;;;;;5033470;28;20083;-64
2021/06/17 11:09:42;;;;;;;4.00;3.70;;;11.30;99.90;;;;;;5033417;28;20029;-63
2021/06/17 11:12:19;;;;;;;4.13;3.90;;;11.40;99.90;;;;;;5033477;28;20025;-63
2021/06/17 11:14:49;;;;;;;4.47;4.28;;;11.30;99.90;;;;;;5033319;28;20412;-64
2021/06/17 11:17:34;;;;;;;4.20;4.00;;;11.50;99.90;;;;;;5033270;28;20028;-63
2021/06/17 11:20:12;;;;;;;6.00;3.70;;;11.50;99.90;;;;;;5033204;28;20398;-64
2021/06/17 11:22:48;;;;;;;4.20;4.00;;;11.50;99.90;;;;;;5033278;28;20474;-62
2021/06/17 11:25:18;;;;;;;4.55;4.18;;;11.40;99.90;;;;;;5033093;28;20017;-65
2021/06/17 11:28:08;;;;;;;3.70;3.50;;;11.30;99.90;;;;;;5033090;28;20386;-64
2021/06/17 11:30:41;;;;;;;3.70;3.50;;;11.40;99.90;;;;;;5033104;28;20025;-64
2021/06/17 11:33:18;;;;;;;4.25;3.50;;;11.30;99.90;;;;;;5032857;28;20061;-64
2021/06/17 11:35:51;;;;;;;3.90;3.70;;;11.40;99.90;;;;;;5031706;28;20112;-63
2021/06/17 11:38:27;;;;;;;3.70;3.40;;;11.40;99.90;;;;;;5033377;28;20029;-63
2021/06/17 11:40:54;;;;;;;3.58;3.28;;;11.60;99.90;;;;;;5032212;28;20025;-64
2021/06/17 11:43:29;;;;;;;3.88;3.67;;;11.60;99.90;;;;;;5032886;28;20025;-64
2021/06/17 11:45:57;;;;;;;4.00;3.80;;;11.70;99.90;;;;;;5032853;28;20072;-64
2021/06/17 11:48:26;;;;;;;4.10;3.90;;;11.70;99.90;;;;;;5032795;28;20501;-64
2021/06/17 11:50:56;;;;;;;4.43;4.22;;;11.80;99.90;;;;;;5032715;28;20440;-64
2021/06/17 11:53:25;;;;;;;3.80;3.60;;;11.70;99.90;;;;;;5031380;28;20435;-65
2021/06/17 11:55:58;;;;;;;4.22;4.03;;;11.70;99.90;;;;;;5032505;28;20049;-65
2021/06/17 11:58:31;;;;;;;4.38;4.18;;;11.60;99.90;;;;;;5032854;28;20490;-63
2021/06/17 12:01:06;;;;;;;4.68;4.28;;;11.70;99.90;;;;;;5032764;28;20025;-64
2021/06/17 12:03:36;;;;;;;4.30;4.10;;;11.70;99.90;;;;;;5031775;28;20053;-64
2021/06/17 12:06:13;;;;;;;4.17;3.97;;;11.70;99.90;;;;;;5032695;28;20393;-64
2021/06/17 12:08:40;;;;;;;3.70;3.60;;;11.70;99.90;;;;;;5032713;28;20259;-64
2021/06/17 12:11:18;;;;;;;4.82;4.53;;;11.70;99.90;;;;;;5032645;28;20022;-63
2021/06/17 12:13:55;;;;;;;4.25;3.92;;;11.70;99.90;;;;;;5031444;28;20386;-63
2021/06/17 12:16:23;;;;;;;4.25;4.05;;;11.80;99.90;;;;;;5032667;28;20427;-65
2021/06/17 12:18:51;;;;;;;3.30;3.10;;;11.80;99.90;;;;;;5031370;28;20359;-65
2021/06/17 12:21:38;;;;;;;3.78;3.58;;;11.80;99.90;;;;;;5032767;28;20029;-65
2021/06/17 12:24:12;;;;;;;3.67;3.42;;;11.70;99.90;;;;;;5032706;28;20057;-65
2021/06/17 12:26:41;;;;;;;3.40;3.20;;;11.70;99.90;;;;;;5032704;28;20022;-65
2021/06/17 12:29:12;;;;;;;3.30;3.20;;;11.60;99.90;;;;;;5032692;28;20017;-65
2021/06/17 12:31:41;;;;;;;3.00;2.90;;;11.50;99.90;;;;;;5032649;28;20060;-64
2021/06/17 12:34:14;;;;;;;3.03;2.92;;;11.60;99.90;;;;;;5032576;28;20512;-64
2021/06/17 12:36:42;;;;;;;2.80;2.70;;;11.70;99.90;;;;;;5032577;28;20013;-64
2021/06/17 12:39:21;;;;;;;3.63;3.53;;;11.60;99.90;;;;;;5032470;28;20014;-64
2021/06/17 12:41:51;;;;;;;3.70;3.42;;;11.80;99.90;;;;;;5032841;28;20029;-64
2021/06/17 12:44:38;;;;;;;2.90;2.80;;;11.90;99.90;;;;;;5032626;28;20033;-64
2021/06/17 12:47:13;;;;;;;3.05;2.70;;;11.70;99.90;;;;;;5032528;28;20278;-64
2021/06/17 12:52:33;;;;;;;3.65;3.38;;;11.60;99.90;;;;;;5034931;28;20113;-64
2021/06/17 12:55:01;;;;;;;4.22;4.03;;;11.50;99.90;;;;;;5035795;28;20069;-64
2021/06/17 12:57:29;;;;;;;4.03;3.90;;;11.50;99.90;;;;;;5035928;28;20101;-64
2021/06/17 13:00:15;;;;;;;3.75;3.63;;;11.50;99.90;;;;;;5035836;28;20033;-64
2021/06/17 13:02:48;;;;;;;4.07;3.88;;;11.50;99.90;;;;;;5034598;28;20120;-63
2021/06/17 13:05:18;;;;;;;3.67;3.42;;;11.40;99.90;;;;;;5035836;28;20029;-64
2021/06/17 13:08:06;;;;;;;4.40;4.10;;;11.40;99.90;;;;;;5035635;28;20075;-64
2021/06/17 13:10:45;;;;;;;3.58;3.40;;;11.30;99.90;;;;;;5035677;28;20058;-64
2021/06/17 13:13:27;;;;;;;3.35;3.15;;;11.30;99.90;;;;;;5035608;28;20018;-64
2021/06/17 13:16:01;;;;;;;3.35;3.25;;;11.40;99.90;;;;;;5035565;28;20129;-63
2021/06/17 13:18:36;;;;;;;2.60;2.50;;;11.40;99.90;;;;;;5035791;28;20537;-63
2021/06/17 13:21:14;;;;;;;3.10;2.90;;;11.40;99.90;;;;;;5035526;28;20383;-64
2021/06/17 13:23:42;;;;;;;2.90;2.70;;;11.40;99.90;;;;;;5035396;28;20026;-64
2021/06/17 13:26:13;;;;;;;2.90;2.80;;;11.40;99.90;;;;;;5034137;28;20024;-64
2021/06/17 13:28:42;;;;;;;2.90;2.80;;;11.30;99.90;;;;;;5035404;28;20381;-64